Estación de Río Bueno
Ultimos registro cada 15 minutos 75
| N° | Estación | Fecha / Hora | Temperatura | Humedad | Lluvia | Velocidad | Dirección | Radiación | Presion |
| 75 | Río Bueno | 10-05-2026 18:30 | 8,9 | 87,5 | 0 | 0 | 154 | 0,6 | 1018,9 |
| 74 | Río Bueno | 10-05-2026 18:15 | 9,9 | 85 | 0 | 0 | 154 | 0,6 | 1018,9 |
| 73 | Río Bueno | 10-05-2026 18:00 | 11,2 | 79,9 | 0 | 0 | 154 | 0,6 | 1018,8 |
| 72 | Río Bueno | 10-05-2026 17:45 | 12,7 | 75,6 | 0 | 0,3 | 161 | 5,6 | 1018,8 |
| 71 | Río Bueno | 10-05-2026 17:30 | 14,3 | 71,2 | 0 | 0,3 | 167 | 14,4 | 1018,8 |
| 70 | Río Bueno | 10-05-2026 17:15 | 15,9 | 67,2 | 0 | 0,7 | 175 | 65,6 | 1018,7 |
| 69 | Río Bueno | 10-05-2026 17:00 | 16,1 | 67,3 | 0 | 1 | 188 | 106,9 | 1018,7 |
| 68 | Río Bueno | 10-05-2026 16:45 | 16,7 | 65,9 | 0 | 0,7 | 195 | 141,9 | 1018,7 |
| 67 | Río Bueno | 10-05-2026 16:30 | 16,9 | 66,2 | 0 | 1 | 188 | 170,6 | 1018,7 |
| 66 | Río Bueno | 10-05-2026 16:15 | 17 | 64,9 | 0 | 1 | 191 | 191,9 | 1018,8 |
| 65 | Río Bueno | 10-05-2026 16:00 | 16,8 | 65,8 | 0 | 1,3 | 192 | 246,9 | 1018,8 |
| 64 | Río Bueno | 10-05-2026 15:45 | 17 | 64,2 | 0 | 1,3 | 198 | 281,9 | 1018,8 |
| 63 | Río Bueno | 10-05-2026 15:30 | 16,9 | 63,9 | 0 | 1,3 | 181 | 316,9 | 1019 |
| 62 | Río Bueno | 10-05-2026 15:15 | 17 | 62,8 | 0 | 1,3 | 183 | 315,6 | 1019 |
| 61 | Río Bueno | 10-05-2026 15:00 | 16,7 | 63 | 0 | 1 | 178 | 366,9 | 1019 |
| 60 | Río Bueno | 10-05-2026 14:45 | 16,9 | 63 | 0 | 1 | 201 | 384,4 | 1019,1 |
| 59 | Río Bueno | 10-05-2026 14:30 | 17,1 | 62,4 | 0 | 0,7 | 178 | 395,6 | 1019,2 |
| 58 | Río Bueno | 10-05-2026 14:15 | 16,4 | 63,9 | 0 | 0,7 | 205 | 439,4 | 1019,4 |
| 57 | Río Bueno | 10-05-2026 14:00 | 15,8 | 66,1 | 0 | 1 | 190 | 450,6 | 1019,6 |
| 56 | Río Bueno | 10-05-2026 13:45 | 15,8 | 63,7 | 0 | 1 | 184 | 466,9 | 1019,6 |
| 55 | Río Bueno | 10-05-2026 13:30 | 15,3 | 66,1 | 0 | 1 | 230 | 478,1 | 1019,8 |
| 54 | Río Bueno | 10-05-2026 13:15 | 14,6 | 66,9 | 0 | 1 | 215 | 484,4 | 1020,1 |
| 53 | Río Bueno | 10-05-2026 13:00 | 13,9 | 68,1 | 0 | 1 | 219 | 486,9 | 1020,2 |
| 52 | Río Bueno | 10-05-2026 12:45 | 14,4 | 68,1 | 0 | 0,7 | 136 | 481,9 | 1020,5 |
| 51 | Río Bueno | 10-05-2026 12:30 | 13,8 | 68,9 | 0 | 0,7 | 230 | 485,6 | 1020,7 |
| 50 | Río Bueno | 10-05-2026 12:15 | 13,1 | 69,3 | 0 | 0,7 | 184 | 476,9 | 1021 |
| 49 | Río Bueno | 10-05-2026 12:00 | 12,7 | 71,2 | 0 | 1 | 147 | 465,6 | 1021,1 |
| 48 | Río Bueno | 10-05-2026 11:45 | 12,2 | 74 | 0 | 1 | 163 | 463,1 | 1021,2 |
| 47 | Río Bueno | 10-05-2026 11:30 | 11,1 | 78,7 | 0 | 1,3 | 180 | 485,6 | 1021,6 |
| 46 | Río Bueno | 10-05-2026 11:15 | 10,8 | 78,7 | 0 | 1,3 | 205 | 476,9 | 1021,7 |
| 45 | Río Bueno | 10-05-2026 11:00 | 10,8 | 79,5 | 0 | 1,3 | 204 | 460,6 | 1021,8 |
| 44 | Río Bueno | 10-05-2026 10:45 | 9,8 | 86,4 | 0 | 0,7 | 178 | 384,4 | 1022 |
| 43 | Río Bueno | 10-05-2026 10:30 | 10,1 | 90,4 | 0 | 0 | 260 | 398,1 | 1022,1 |
| 42 | Río Bueno | 10-05-2026 10:15 | 8,7 | 90,9 | 0 | 0,3 | 251 | 210,6 | 1022,2 |
| 41 | Río Bueno | 10-05-2026 10:00 | 7,4 | 98,1 | 0 | 0 | 208 | 288,1 | 1022,3 |
| 40 | Río Bueno | 10-05-2026 09:45 | 5,2 | 98,2 | 0 | 0,3 | 173 | 258,1 | 1022,2 |
| 39 | Río Bueno | 10-05-2026 09:30 | 3,9 | 98,1 | 0 | 0 | 219 | 233,1 | 1022,2 |
| 38 | Río Bueno | 10-05-2026 09:15 | 0,7 | 97,4 | 0 | 0 | 219 | 75,6 | 1022 |
| 37 | Río Bueno | 10-05-2026 09:00 | 0,2 | 97,3 | 0 | 0 | 219 | 40,6 | 1021,9 |
| 36 | Río Bueno | 10-05-2026 08:45 | 0 | 97,2 | 0 | 0 | 219 | 24,4 | 1021,9 |
| 35 | Río Bueno | 10-05-2026 08:30 | 0 | 97,2 | 0 | 0 | 220 | 19,4 | 1021,8 |
| 34 | Río Bueno | 10-05-2026 08:15 | 0 | 97,2 | 0 | 0 | 220 | 10,6 | 1021,8 |
| 33 | Río Bueno | 10-05-2026 08:00 | -0,5 | 97 | 0 | 0 | 220 | 5,6 | 1021,9 |
| 32 | Río Bueno | 10-05-2026 07:45 | -0,3 | 97 | 0 | 0 | 220 | 1,9 | 1021,9 |
| 31 | Río Bueno | 10-05-2026 07:30 | -0,1 | 97,1 | 0 | 0,3 | 220 | 0,6 | 1021,8 |
| 30 | Río Bueno | 10-05-2026 07:15 | 0 | 97,1 | 0 | 0 | 220 | 0,6 | 1022 |
| 29 | Río Bueno | 10-05-2026 07:00 | -0,3 | 97,1 | 0 | 0 | 220 | 0,6 | 1022,1 |
| 28 | Río Bueno | 10-05-2026 06:45 | -0,3 | 96,9 | 0 | 0,3 | 220 | 0,6 | 1022,1 |
| 27 | Río Bueno | 10-05-2026 06:30 | -0,6 | 96,7 | 0 | 0 | 220 | 0,6 | 1022,1 |
| 26 | Río Bueno | 10-05-2026 06:15 | -0,5 | 96,6 | 0 | 0 | 220 | 0,6 | 1021,9 |
| 25 | Río Bueno | 10-05-2026 06:00 | -0,1 | 96,7 | 0 | 0 | 220 | 0,6 | 1021,9 |
| 24 | Río Bueno | 10-05-2026 05:45 | -0,1 | 96,7 | 0 | 0 | 220 | 0,6 | 1021,8 |
| 23 | Río Bueno | 10-05-2026 05:30 | -0,4 | 96,6 | 0 | 0 | 220 | 0,6 | 1021,8 |
| 22 | Río Bueno | 10-05-2026 05:15 | -0,2 | 96,6 | 0 | 0 | 220 | 0,6 | 1021,8 |
| 21 | Río Bueno | 10-05-2026 05:00 | -0,4 | 96,5 | 0 | 0 | 220 | 0,6 | 1021,8 |
| 20 | Río Bueno | 10-05-2026 04:45 | 0,2 | 96,7 | 0 | 0 | 220 | 0,6 | 1021,7 |
| 19 | Río Bueno | 10-05-2026 04:30 | -0,2 | 96,4 | 0 | 0 | 220 | 0,6 | 1021,9 |
| 18 | Río Bueno | 10-05-2026 04:15 | 0 | 96,4 | 0 | 0 | 219 | 0,6 | 1021,8 |
| 17 | Río Bueno | 10-05-2026 04:00 | 0,5 | 96,6 | 0 | 0 | 219 | 0,6 | 1021,8 |
| 16 | Río Bueno | 10-05-2026 03:45 | 0,3 | 96,4 | 0 | 0 | 220 | 0,6 | 1021,9 |
| 15 | Río Bueno | 10-05-2026 03:30 | 1,3 | 96,8 | 0 | 0,3 | 220 | 0,6 | 1021,7 |
| 14 | Río Bueno | 10-05-2026 03:15 | 0,8 | 96,4 | 0 | 0,3 | 219 | 0,6 | 1021,8 |
| 13 | Río Bueno | 10-05-2026 03:00 | 0,3 | 96,1 | 0 | 0 | 219 | 0,6 | 1022 |
| 12 | Río Bueno | 10-05-2026 02:45 | 0,5 | 96,1 | 0 | 0 | 220 | 0,6 | 1022,1 |
| 11 | Río Bueno | 10-05-2026 02:30 | 1 | 96,3 | 0 | 0 | 220 | 0,6 | 1022,2 |
| 10 | Río Bueno | 10-05-2026 02:15 | 1,4 | 96,3 | 0 | 0 | 219 | 0,6 | 1022,3 |
| 9 | Río Bueno | 10-05-2026 02:00 | 0,9 | 96 | 0 | 0 | 220 | 0,6 | 1022,3 |
| 8 | Río Bueno | 10-05-2026 01:45 | 1,4 | 96,1 | 0 | 0 | 220 | 0,6 | 1022,3 |
| 7 | Río Bueno | 10-05-2026 01:30 | 0,9 | 95,9 | 0 | 0 | 220 | 0,6 | 1022,4 |
| 6 | Río Bueno | 10-05-2026 01:15 | 1,1 | 95,8 | 0 | 0 | 219 | 0,6 | 1022,3 |
| 5 | Río Bueno | 10-05-2026 01:00 | 1,7 | 95,9 | 0 | 0 | 219 | 0,6 | 1022,3 |
| 4 | Río Bueno | 10-05-2026 00:45 | 2,9 | 96,6 | 0 | 0 | 219 | 0,6 | 1022,6 |
| 3 | Río Bueno | 10-05-2026 00:30 | 1,5 | 95,5 | 0 | 0 | 220 | 0,6 | 1022,8 |
| 2 | Río Bueno | 10-05-2026 00:15 | 2,3 | 95,7 | 0 | 0 | 219 | 0,6 | 1022,8 |
| 1 | Río Bueno | 10-05-2026 00:00 | 2,2 | 95,5 | 0 | 0 | 219 | 0,6 | 1022,9 |